sensor_id;sensor_type;location;lat;lon;timestamp;P1;durP1;ratioP1;P2;durP2;ratioP2
50851;SDS011;43953;45.508;-122.806;2023-03-14T00:00:16;1.20;;;0.80;;
50851;SDS011;43953;45.508;-122.806;2023-03-14T00:00:48;1.95;;;0.88;;
50851;SDS011;43953;45.508;-122.806;2023-03-14T00:01:20;0.90;;;0.70;;
50851;SDS011;43953;45.508;-122.806;2023-03-14T00:01:51;0.70;;;0.70;;
50851;SDS011;43953;45.508;-122.806;2023-03-14T00:02:23;1.60;;;1.08;;
50851;SDS011;43953;45.508;-122.806;2023-03-14T00:02:55;1.67;;;1.10;;
50851;SDS011;43953;45.508;-122.806;2023-03-14T00:03:27;0.80;;;0.70;;
50851;SDS011;43953;45.508;-122.806;2023-03-14T00:04:00;0.80;;;0.80;;
50851;SDS011;43953;45.508;-122.806;2023-03-14T00:04:31;0.90;;;0.70;;
50851;SDS011;43953;45.508;-122.806;2023-03-14T00:05:03;0.70;;;0.70;;
50851;SDS011;43953;45.508;-122.806;2023-03-14T00:05:37;0.60;;;0.60;;
50851;SDS011;43953;45.508;-122.806;2023-03-14T00:06:09;0.88;;;0.80;;
50851;SDS011;43953;45.508;-122.806;2023-03-14T00:06:42;1.35;;;0.82;;
50851;SDS011;43953;45.508;-122.806;2023-03-14T00:07:13;0.70;;;0.70;;
50851;SDS011;43953;45.508;-122.806;2023-03-14T00:07:45;0.73;;;0.70;;
50851;SDS011;43953;45.508;-122.806;2023-03-14T00:08:17;0.80;;;0.80;;
50851;SDS011;43953;45.508;-122.806;2023-03-14T00:08:50;0.68;;;0.68;;
50851;SDS011;43953;45.508;-122.806;2023-03-14T00:09:22;0.75;;;0.70;;
50851;SDS011;43953;45.508;-122.806;2023-03-14T00:09:54;0.82;;;0.70;;
50851;SDS011;43953;45.508;-122.806;2023-03-14T00:10:25;0.70;;;0.70;;
50851;SDS011;43953;45.508;-122.806;2023-03-14T00:10:57;0.88;;;0.70;;
50851;SDS011;43953;45.508;-122.806;2023-03-14T00:11:29;0.80;;;0.80;;
50851;SDS011;43953;45.508;-122.806;2023-03-14T00:12:01;0.70;;;0.70;;
50851;SDS011;43953;45.508;-122.806;2023-03-14T00:12:33;0.60;;;0.60;;
50851;SDS011;43953;45.508;-122.806;2023-03-14T00:13:05;0.90;;;0.60;;
50851;SDS011;43953;45.508;-122.806;2023-03-14T00:13:37;0.75;;;0.63;;
50851;SDS011;43953;45.508;-122.806;2023-03-14T00:14:09;0.88;;;0.73;;
50851;SDS011;43953;45.508;-122.806;2023-03-14T00:14:42;0.68;;;0.65;;
50851;SDS011;43953;45.508;-122.806;2023-03-14T00:15:14;0.60;;;0.60;;
50851;SDS011;43953;45.508;-122.806;2023-03-14T00:15:46;0.70;;;0.65;;
50851;SDS011;43953;45.508;-122.806;2023-03-14T00:16:18;0.50;;;0.50;;
50851;SDS011;43953;45.508;-122.806;2023-03-14T00:16:50;0.50;;;0.50;;
50851;SDS011;43953;45.508;-122.806;2023-03-14T00:17:22;0.60;;;0.60;;
50851;SDS011;43953;45.508;-122.806;2023-03-14T00:17:53;0.90;;;0.60;;
50851;SDS011;43953;45.508;-122.806;2023-03-14T00:18:25;1.08;;;0.70;;
50851;SDS011;43953;45.508;-122.806;2023-03-14T00:18:59;0.75;;;0.73;;
50851;SDS011;43953;45.508;-122.806;2023-03-14T00:19:32;0.68;;;0.60;;
50851;SDS011;43953;45.508;-122.806;2023-03-14T00:20:04;0.60;;;0.60;;
50851;SDS011;43953;45.508;-122.806;2023-03-14T00:20:41;0.70;;;0.70;;
50851;SDS011;43953;45.508;-122.806;2023-03-14T00:21:13;0.90;;;0.77;;
50851;SDS011;43953;45.508;-122.806;2023-03-14T00:21:45;1.48;;;0.70;;
50851;SDS011;43953;45.508;-122.806;2023-03-14T00:22:18;0.90;;;0.80;;
50851;SDS011;43953;45.508;-122.806;2023-03-14T00:22:49;1.40;;;0.88;;
50851;SDS011;43953;45.508;-122.806;2023-03-14T00:23:21;0.73;;;0.70;;
50851;SDS011;43953;45.508;-122.806;2023-03-14T00:23:53;1.55;;;0.80;;
50851;SDS011;43953;45.508;-122.806;2023-03-14T00:24:24;1.10;;;0.88;;
50851;SDS011;43953;45.508;-122.806;2023-03-14T00:24:56;1.45;;;0.75;;
50851;SDS011;43953;45.508;-122.806;2023-03-14T00:25:28;0.90;;;0.82;;
50851;SDS011;43953;45.508;-122.806;2023-03-14T00:26:00;0.80;;;0.70;;
50851;SDS011;43953;45.508;-122.806;2023-03-14T00:26:36;1.30;;;0.90;;
50851;SDS011;43953;45.508;-122.806;2023-03-14T00:27:08;0.70;;;0.60;;
50851;SDS011;43953;45.508;-122.806;2023-03-14T00:27:39;0.60;;;0.60;;
50851;SDS011;43953;45.508;-122.806;2023-03-14T00:28:11;0.63;;;0.60;;
50851;SDS011;43953;45.508;-122.806;2023-03-14T00:28:44;0.77;;;0.70;;
50851;SDS011;43953;45.508;-122.806;2023-03-14T00:29:16;0.70;;;0.70;;
50851;SDS011;43953;45.508;-122.806;2023-03-14T00:29:47;0.75;;;0.70;;
50851;SDS011;43953;45.508;-122.806;2023-03-14T00:30:19;1.00;;;0.60;;
50851;SDS011;43953;45.508;-122.806;2023-03-14T00:30:51;1.42;;;0.70;;
50851;SDS011;43953;45.508;-122.806;2023-03-14T00:31:23;0.75;;;0.70;;
50851;SDS011;43953;45.508;-122.806;2023-03-14T00:31:54;1.10;;;0.80;;
50851;SDS011;43953;45.508;-122.806;2023-03-14T00:32:26;0.60;;;0.60;;
50851;SDS011;43953;45.508;-122.806;2023-03-14T00:32:58;0.88;;;0.82;;
50851;SDS011;43953;45.508;-122.806;2023-03-14T00:33:30;0.60;;;0.60;;
50851;SDS011;43953;45.508;-122.806;2023-03-14T00:34:01;0.70;;;0.70;;
50851;SDS011;43953;45.508;-122.806;2023-03-14T00:34:33;0.60;;;0.60;;
50851;SDS011;43953;45.508;-122.806;2023-03-14T00:35:05;0.73;;;0.68;;
50851;SDS011;43953;45.508;-122.806;2023-03-14T00:35:37;0.60;;;0.60;;
50851;SDS011;43953;45.508;-122.806;2023-03-14T00:36:10;0.60;;;0.60;;
50851;SDS011;43953;45.508;-122.806;2023-03-14T00:36:44;0.85;;;0.60;;
50851;SDS011;43953;45.508;-122.806;2023-03-14T00:37:16;0.95;;;0.70;;
50851;SDS011;43953;45.508;-122.806;2023-03-14T00:37:48;0.82;;;0.82;;
50851;SDS011;43953;45.508;-122.806;2023-03-14T00:38:19;0.98;;;0.60;;
50851;SDS011;43953;45.508;-122.806;2023-03-14T00:38:52;0.68;;;0.68;;
50851;SDS011;43953;45.508;-122.806;2023-03-14T00:39:23;0.60;;;0.60;;
50851;SDS011;43953;45.508;-122.806;2023-03-14T00:39:55;1.33;;;0.85;;
50851;SDS011;43953;45.508;-122.806;2023-03-14T00:40:28;1.20;;;0.82;;
50851;SDS011;43953;45.508;-122.806;2023-03-14T00:41:02;1.23;;;0.95;;
50851;SDS011;43953;45.508;-122.806;2023-03-14T00:41:36;1.15;;;0.80;;
50851;SDS011;43953;45.508;-122.806;2023-03-14T00:42:08;1.10;;;1.00;;
50851;SDS011;43953;45.508;-122.806;2023-03-14T00:42:40;1.00;;;0.93;;
50851;SDS011;43953;45.508;-122.806;2023-03-14T00:43:11;0.70;;;0.70;;
50851;SDS011;43953;45.508;-122.806;2023-03-14T00:43:43;0.90;;;0.80;;
50851;SDS011;43953;45.508;-122.806;2023-03-14T00:44:15;0.80;;;0.80;;
50851;SDS011;43953;45.508;-122.806;2023-03-14T00:44:47;0.70;;;0.70;;
50851;SDS011;43953;45.508;-122.806;2023-03-14T00:45:19;1.23;;;1.00;;
50851;SDS011;43953;45.508;-122.806;2023-03-14T00:45:51;1.30;;;0.98;;
50851;SDS011;43953;45.508;-122.806;2023-03-14T00:46:23;1.17;;;0.80;;
50851;SDS011;43953;45.508;-122.806;2023-03-14T00:46:55;1.08;;;0.90;;
50851;SDS011;43953;45.508;-122.806;2023-03-14T00:47:27;0.82;;;0.80;;
50851;SDS011;43953;45.508;-122.806;2023-03-14T00:47:59;1.92;;;1.25;;
50851;SDS011;43953;45.508;-122.806;2023-03-14T00:48:31;0.82;;;0.82;;
50851;SDS011;43953;45.508;-122.806;2023-03-14T00:49:03;0.90;;;0.80;;
50851;SDS011;43953;45.508;-122.806;2023-03-14T00:49:35;1.17;;;0.90;;
50851;SDS011;43953;45.508;-122.806;2023-03-14T00:50:06;1.00;;;0.90;;
50851;SDS011;43953;45.508;-122.806;2023-03-14T00:50:39;1.08;;;0.90;;
50851;SDS011;43953;45.508;-122.806;2023-03-14T00:51:11;1.60;;;0.90;;
50851;SDS011;43953;45.508;-122.806;2023-03-14T00:51:45;1.23;;;1.13;;
50851;SDS011;43953;45.508;-122.806;2023-03-14T00:52:17;0.98;;;0.90;;
50851;SDS011;43953;45.508;-122.806;2023-03-14T00:52:48;0.77;;;0.77;;
50851;SDS011;43953;45.508;-122.806;2023-03-14T00:53:20;1.77;;;0.85;;
50851;SDS011;43953;45.508;-122.806;2023-03-14T00:53:52;0.82;;;0.77;;
50851;SDS011;43953;45.508;-122.806;2023-03-14T00:54:24;0.82;;;0.82;;
50851;SDS011;43953;45.508;-122.806;2023-03-14T00:54:55;1.00;;;0.80;;
50851;SDS011;43953;45.508;-122.806;2023-03-14T00:55:27;1.65;;;0.75;;
50851;SDS011;43953;45.508;-122.806;2023-03-14T00:56:01;1.40;;;0.82;;
50851;SDS011;43953;45.508;-122.806;2023-03-14T00:56:34;1.60;;;1.00;;
50851;SDS011;43953;45.508;-122.806;2023-03-14T00:57:06;1.20;;;1.02;;
50851;SDS011;43953;45.508;-122.806;2023-03-14T00:57:38;1.63;;;0.90;;
50851;SDS011;43953;45.508;-122.806;2023-03-14T00:58:13;1.00;;;0.80;;
50851;SDS011;43953;45.508;-122.806;2023-03-14T00:58:46;1.33;;;0.85;;
50851;SDS011;43953;45.508;-122.806;2023-03-14T00:59:17;1.17;;;0.90;;
50851;SDS011;43953;45.508;-122.806;2023-03-14T00:59:50;0.90;;;0.82;;
50851;SDS011;43953;45.508;-122.806;2023-03-14T01:00:22;1.10;;;1.00;;
50851;SDS011;43953;45.508;-122.806;2023-03-14T01:00:54;1.17;;;0.82;;
50851;SDS011;43953;45.508;-122.806;2023-03-14T01:01:26;0.93;;;0.80;;
50851;SDS011;43953;45.508;-122.806;2023-03-14T01:01:58;1.02;;;0.80;;
50851;SDS011;43953;45.508;-122.806;2023-03-14T01:02:29;0.85;;;0.77;;
50851;SDS011;43953;45.508;-122.806;2023-03-14T01:03:01;1.00;;;0.80;;
50851;SDS011;43953;45.508;-122.806;2023-03-14T01:03:33;0.70;;;0.70;;
50851;SDS011;43953;45.508;-122.806;2023-03-14T01:04:05;0.80;;;0.70;;
50851;SDS011;43953;45.508;-122.806;2023-03-14T01:04:37;0.85;;;0.80;;
50851;SDS011;43953;45.508;-122.806;2023-03-14T01:05:10;0.73;;;0.60;;
50851;SDS011;43953;45.508;-122.806;2023-03-14T01:05:41;1.30;;;0.70;;
50851;SDS011;43953;45.508;-122.806;2023-03-14T01:06:14;1.33;;;0.70;;
50851;SDS011;43953;45.508;-122.806;2023-03-14T01:06:47;1.00;;;0.90;;
50851;SDS011;43953;45.508;-122.806;2023-03-14T01:07:19;1.33;;;1.00;;
50851;SDS011;43953;45.508;-122.806;2023-03-14T01:07:51;0.90;;;0.90;;
50851;SDS011;43953;45.508;-122.806;2023-03-14T01:08:23;0.85;;;0.75;;
50851;SDS011;43953;45.508;-122.806;2023-03-14T01:08:54;1.48;;;0.88;;
50851;SDS011;43953;45.508;-122.806;2023-03-14T01:09:27;1.05;;;0.70;;
50851;SDS011;43953;45.508;-122.806;2023-03-14T01:09:58;1.65;;;1.00;;
50851;SDS011;43953;45.508;-122.806;2023-03-14T01:10:30;0.70;;;0.68;;
50851;SDS011;43953;45.508;-122.806;2023-03-14T01:11:21;0.70;;;0.70;;
50851;SDS011;43953;45.508;-122.806;2023-03-14T01:11:54;1.15;;;0.80;;
50851;SDS011;43953;45.508;-122.806;2023-03-14T01:12:26;0.80;;;0.63;;
50851;SDS011;43953;45.508;-122.806;2023-03-14T01:12:58;1.00;;;0.90;;
50851;SDS011;43953;45.508;-122.806;2023-03-14T01:13:30;1.08;;;0.80;;
50851;SDS011;43953;45.508;-122.806;2023-03-14T01:14:02;1.48;;;0.90;;
50851;SDS011;43953;45.508;-122.806;2023-03-14T01:14:34;1.25;;;1.05;;
50851;SDS011;43953;45.508;-122.806;2023-03-14T01:15:06;1.45;;;0.77;;
50851;SDS011;43953;45.508;-122.806;2023-03-14T01:15:39;1.02;;;0.90;;
50851;SDS011;43953;45.508;-122.806;2023-03-14T01:16:11;1.60;;;1.00;;
50851;SDS011;43953;45.508;-122.806;2023-03-14T01:16:43;1.30;;;1.00;;
50851;SDS011;43953;45.508;-122.806;2023-03-14T01:17:15;2.15;;;1.15;;
50851;SDS011;43953;45.508;-122.806;2023-03-14T01:17:47;1.65;;;1.00;;
50851;SDS011;43953;45.508;-122.806;2023-03-14T01:18:18;1.10;;;0.88;;
50851;SDS011;43953;45.508;-122.806;2023-03-14T01:18:50;1.10;;;1.00;;
50851;SDS011;43953;45.508;-122.806;2023-03-14T01:19:22;2.00;;;1.00;;
50851;SDS011;43953;45.508;-122.806;2023-03-14T01:19:54;1.15;;;1.05;;
50851;SDS011;43953;45.508;-122.806;2023-03-14T01:20:25;0.95;;;0.80;;
50851;SDS011;43953;45.508;-122.806;2023-03-14T01:20:57;1.05;;;0.80;;
50851;SDS011;43953;45.508;-122.806;2023-03-14T01:21:33;0.93;;;0.70;;
50851;SDS011;43953;45.508;-122.806;2023-03-14T01:22:05;1.00;;;0.60;;
50851;SDS011;43953;45.508;-122.806;2023-03-14T01:22:38;1.60;;;0.80;;
50851;SDS011;43953;45.508;-122.806;2023-03-14T01:23:10;0.73;;;0.63;;
50851;SDS011;43953;45.508;-122.806;2023-03-14T01:23:42;0.73;;;0.73;;
50851;SDS011;43953;45.508;-122.806;2023-03-14T01:24:14;1.00;;;0.70;;
50851;SDS011;43953;45.508;-122.806;2023-03-14T01:24:46;1.35;;;0.80;;
50851;SDS011;43953;45.508;-122.806;2023-03-14T01:25:18;1.50;;;0.98;;
50851;SDS011;43953;45.508;-122.806;2023-03-14T01:25:50;0.98;;;0.90;;
50851;SDS011;43953;45.508;-122.806;2023-03-14T01:26:22;0.75;;;0.73;;
50851;SDS011;43953;45.508;-122.806;2023-03-14T01:26:56;0.68;;;0.60;;
50851;SDS011;43953;45.508;-122.806;2023-03-14T01:27:28;1.17;;;0.90;;
50851;SDS011;43953;45.508;-122.806;2023-03-14T01:27:59;1.15;;;0.80;;
50851;SDS011;43953;45.508;-122.806;2023-03-14T01:28:31;0.85;;;0.77;;
50851;SDS011;43953;45.508;-122.806;2023-03-14T01:29:03;0.82;;;0.80;;
50851;SDS011;43953;45.508;-122.806;2023-03-14T01:29:35;0.98;;;0.68;;
50851;SDS011;43953;45.508;-122.806;2023-03-14T01:30:07;0.90;;;0.80;;
50851;SDS011;43953;45.508;-122.806;2023-03-14T01:30:40;0.75;;;0.73;;
50851;SDS011;43953;45.508;-122.806;2023-03-14T01:31:12;1.48;;;0.73;;
50851;SDS011;43953;45.508;-122.806;2023-03-14T01:31:44;0.98;;;0.90;;
50851;SDS011;43953;45.508;-122.806;2023-03-14T01:32:16;1.30;;;1.13;;
50851;SDS011;43953;45.508;-122.806;2023-03-14T01:32:47;1.80;;;1.00;;
50851;SDS011;43953;45.508;-122.806;2023-03-14T01:33:19;1.95;;;1.20;;
50851;SDS011;43953;45.508;-122.806;2023-03-14T01:33:51;2.72;;;1.50;;
50851;SDS011;43953;45.508;-122.806;2023-03-14T01:34:23;1.48;;;1.10;;
50851;SDS011;43953;45.508;-122.806;2023-03-14T01:34:54;1.45;;;0.90;;
50851;SDS011;43953;45.508;-122.806;2023-03-14T01:35:26;1.42;;;1.10;;
50851;SDS011;43953;45.508;-122.806;2023-03-14T01:35:58;1.20;;;1.10;;
50851;SDS011;43953;45.508;-122.806;2023-03-14T01:36:32;1.10;;;1.00;;
50851;SDS011;43953;45.508;-122.806;2023-03-14T01:37:04;0.88;;;0.80;;
50851;SDS011;43953;45.508;-122.806;2023-03-14T01:37:38;0.95;;;0.80;;
50851;SDS011;43953;45.508;-122.806;2023-03-14T01:38:09;1.33;;;1.00;;
50851;SDS011;43953;45.508;-122.806;2023-03-14T01:38:41;1.08;;;0.90;;
50851;SDS011;43953;45.508;-122.806;2023-03-14T01:39:13;1.58;;;0.85;;
50851;SDS011;43953;45.508;-122.806;2023-03-14T01:39:46;1.08;;;0.98;;
50851;SDS011;43953;45.508;-122.806;2023-03-14T01:40:18;0.80;;;0.80;;
50851;SDS011;43953;45.508;-122.806;2023-03-14T01:40:49;2.05;;;0.90;;
50851;SDS011;43953;45.508;-122.806;2023-03-14T01:41:23;0.70;;;0.70;;
50851;SDS011;43953;45.508;-122.806;2023-03-14T01:41:55;0.82;;;0.75;;
50851;SDS011;43953;45.508;-122.806;2023-03-14T01:42:27;2.13;;;1.20;;
50851;SDS011;43953;45.508;-122.806;2023-03-14T01:43:05;1.15;;;0.90;;
50851;SDS011;43953;45.508;-122.806;2023-03-14T01:43:44;1.35;;;0.80;;
50851;SDS011;43953;45.508;-122.806;2023-03-14T01:44:16;1.60;;;0.90;;
50851;SDS011;43953;45.508;-122.806;2023-03-14T01:44:58;0.98;;;0.80;;
50851;SDS011;43953;45.508;-122.806;2023-03-14T01:46:35;1.80;;;0.95;;
50851;SDS011;43953;45.508;-122.806;2023-03-14T01:47:11;1.17;;;0.80;;
50851;SDS011;43953;45.508;-122.806;2023-03-14T01:47:43;1.33;;;0.93;;
50851;SDS011;43953;45.508;-122.806;2023-03-14T01:48:15;1.15;;;0.90;;
50851;SDS011;43953;45.508;-122.806;2023-03-14T01:50:08;1.52;;;0.95;;
50851;SDS011;43953;45.508;-122.806;2023-03-14T01:50:42;1.20;;;0.80;;
50851;SDS011;43953;45.508;-122.806;2023-03-14T01:52:33;2.08;;;0.95;;
50851;SDS011;43953;45.508;-122.806;2023-03-14T01:53:07;1.17;;;0.85;;
50851;SDS011;43953;45.508;-122.806;2023-03-14T01:53:39;1.30;;;0.88;;
50851;SDS011;43953;45.508;-122.806;2023-03-14T01:54:17;1.00;;;0.95;;
50851;SDS011;43953;45.508;-122.806;2023-03-14T01:55:16;1.25;;;1.00;;
50851;SDS011;43953;45.508;-122.806;2023-03-14T01:55:52;1.08;;;0.95;;
50851;SDS011;43953;45.508;-122.806;2023-03-14T01:56:27;1.33;;;1.23;;
50851;SDS011;43953;45.508;-122.806;2023-03-14T01:57:50;1.88;;;1.23;;
50851;SDS011;43953;45.508;-122.806;2023-03-14T01:58:29;2.80;;;1.27;;
50851;SDS011;43953;45.508;-122.806;2023-03-14T01:59:06;1.35;;;1.10;;
50851;SDS011;43953;45.508;-122.806;2023-03-14T01:59:39;2.20;;;1.40;;
50851;SDS011;43953;45.508;-122.806;2023-03-14T02:00:18;1.30;;;1.20;;
50851;SDS011;43953;45.508;-122.806;2023-03-14T02:00:51;1.73;;;1.00;;
50851;SDS011;43953;45.508;-122.806;2023-03-14T02:01:24;1.45;;;1.15;;
50851;SDS011;43953;45.508;-122.806;2023-03-14T02:01:57;2.20;;;1.10;;
50851;SDS011;43953;45.508;-122.806;2023-03-14T02:02:30;1.02;;;0.90;;
50851;SDS011;43953;45.508;-122.806;2023-03-14T02:03:05;1.08;;;0.95;;
50851;SDS011;43953;45.508;-122.806;2023-03-14T02:03:51;0.90;;;0.90;;
50851;SDS011;43953;45.508;-122.806;2023-03-14T02:04:26;2.17;;;1.00;;
50851;SDS011;43953;45.508;-122.806;2023-03-14T02:05:04;1.20;;;1.00;;
50851;SDS011;43953;45.508;-122.806;2023-03-14T02:05:38;1.00;;;0.90;;
50851;SDS011;43953;45.508;-122.806;2023-03-14T02:06:11;1.45;;;0.90;;
50851;SDS011;43953;45.508;-122.806;2023-03-14T02:06:50;1.50;;;1.20;;
50851;SDS011;43953;45.508;-122.806;2023-03-14T02:07:44;0.88;;;0.88;;
50851;SDS011;43953;45.508;-122.806;2023-03-14T02:08:22;1.48;;;1.15;;
50851;SDS011;43953;45.508;-122.806;2023-03-14T02:08:55;1.27;;;0.80;;
50851;SDS011;43953;45.508;-122.806;2023-03-14T02:09:27;1.52;;;0.90;;
50851;SDS011;43953;45.508;-122.806;2023-03-14T02:09:59;1.60;;;0.90;;
50851;SDS011;43953;45.508;-122.806;2023-03-14T02:10:34;2.42;;;1.00;;
50851;SDS011;43953;45.508;-122.806;2023-03-14T02:11:10;1.33;;;1.00;;
50851;SDS011;43953;45.508;-122.806;2023-03-14T02:11:41;1.35;;;0.90;;
50851;SDS011;43953;45.508;-122.806;2023-03-14T02:12:16;1.27;;;1.00;;
50851;SDS011;43953;45.508;-122.806;2023-03-14T02:12:48;1.75;;;1.10;;
50851;SDS011;43953;45.508;-122.806;2023-03-14T02:13:21;1.13;;;0.80;;
50851;SDS011;43953;45.508;-122.806;2023-03-14T02:13:53;2.00;;;1.10;;
50851;SDS011;43953;45.508;-122.806;2023-03-14T02:14:33;1.55;;;0.90;;
50851;SDS011;43953;45.508;-122.806;2023-03-14T02:15:06;1.75;;;0.90;;
50851;SDS011;43953;45.508;-122.806;2023-03-14T02:15:38;1.05;;;0.90;;
50851;SDS011;43953;45.508;-122.806;2023-03-14T02:16:10;1.92;;;0.70;;
50851;SDS011;43953;45.508;-122.806;2023-03-14T02:16:42;1.50;;;0.95;;
50851;SDS011;43953;45.508;-122.806;2023-03-14T02:17:15;1.15;;;0.90;;
50851;SDS011;43953;45.508;-122.806;2023-03-14T02:17:48;1.42;;;0.80;;
50851;SDS011;43953;45.508;-122.806;2023-03-14T02:18:20;0.80;;;0.80;;
50851;SDS011;43953;45.508;-122.806;2023-03-14T02:18:52;1.10;;;0.80;;
50851;SDS011;43953;45.508;-122.806;2023-03-14T02:20:08;0.73;;;0.73;;
50851;SDS011;43953;45.508;-122.806;2023-03-14T02:21:18;1.40;;;0.93;;
50851;SDS011;43953;45.508;-122.806;2023-03-14T02:22:13;1.30;;;0.90;;
50851;SDS011;43953;45.508;-122.806;2023-03-14T02:22:46;1.80;;;1.13;;
50851;SDS011;43953;45.508;-122.806;2023-03-14T02:23:20;1.25;;;0.88;;
50851;SDS011;43953;45.508;-122.806;2023-03-14T02:24:27;0.68;;;0.60;;
50851;SDS011;43953;45.508;-122.806;2023-03-14T02:27:00;1.42;;;1.05;;
50851;SDS011;43953;45.508;-122.806;2023-03-14T02:27:36;1.00;;;0.88;;
50851;SDS011;43953;45.508;-122.806;2023-03-14T02:28:09;1.05;;;0.77;;
50851;SDS011;43953;45.508;-122.806;2023-03-14T02:28:41;1.05;;;0.80;;
50851;SDS011;43953;45.508;-122.806;2023-03-14T02:29:13;0.80;;;0.80;;
50851;SDS011;43953;45.508;-122.806;2023-03-14T02:30:46;1.35;;;0.80;;
50851;SDS011;43953;45.508;-122.806;2023-03-14T02:31:20;1.23;;;0.90;;
50851;SDS011;43953;45.508;-122.806;2023-03-14T02:31:53;1.50;;;0.90;;
50851;SDS011;43953;45.508;-122.806;2023-03-14T02:32:25;1.38;;;1.00;;
50851;SDS011;43953;45.508;-122.806;2023-03-14T02:33:08;1.60;;;0.90;;
50851;SDS011;43953;45.508;-122.806;2023-03-14T02:33:43;1.95;;;1.23;;
50851;SDS011;43953;45.508;-122.806;2023-03-14T02:34:15;1.38;;;1.27;;
50851;SDS011;43953;45.508;-122.806;2023-03-14T02:34:49;1.42;;;1.10;;
50851;SDS011;43953;45.508;-122.806;2023-03-14T02:35:26;1.60;;;1.30;;
50851;SDS011;43953;45.508;-122.806;2023-03-14T02:36:01;1.27;;;1.17;;
50851;SDS011;43953;45.508;-122.806;2023-03-14T02:36:36;1.83;;;1.10;;
50851;SDS011;43953;45.508;-122.806;2023-03-14T02:37:08;1.48;;;1.27;;
50851;SDS011;43953;45.508;-122.806;2023-03-14T02:37:43;2.13;;;1.13;;
50851;SDS011;43953;45.508;-122.806;2023-03-14T02:39:17;1.20;;;1.10;;
50851;SDS011;43953;45.508;-122.806;2023-03-14T02:39:55;2.20;;;1.10;;
50851;SDS011;43953;45.508;-122.806;2023-03-14T02:40:27;1.40;;;1.00;;
50851;SDS011;43953;45.508;-122.806;2023-03-14T02:40:59;2.05;;;1.27;;
50851;SDS011;43953;45.508;-122.806;2023-03-14T02:41:30;1.77;;;1.25;;
50851;SDS011;43953;45.508;-122.806;2023-03-14T02:42:02;2.08;;;1.77;;
50851;SDS011;43953;45.508;-122.806;2023-03-14T02:42:34;1.73;;;1.38;;
50851;SDS011;43953;45.508;-122.806;2023-03-14T02:43:06;2.10;;;1.50;;
50851;SDS011;43953;45.508;-122.806;2023-03-14T02:43:38;1.92;;;1.50;;
50851;SDS011;43953;45.508;-122.806;2023-03-14T02:44:09;2.40;;;1.40;;
50851;SDS011;43953;45.508;-122.806;2023-03-14T02:45:01;1.85;;;1.23;;
50851;SDS011;43953;45.508;-122.806;2023-03-14T02:46:17;1.75;;;1.40;;
50851;SDS011;43953;45.508;-122.806;2023-03-14T02:46:51;1.77;;;1.40;;
50851;SDS011;43953;45.508;-122.806;2023-03-14T02:47:25;1.85;;;1.50;;
50851;SDS011;43953;45.508;-122.806;2023-03-14T02:48:01;1.65;;;1.50;;
50851;SDS011;43953;45.508;-122.806;2023-03-14T02:48:41;2.30;;;1.80;;
50851;SDS011;43953;45.508;-122.806;2023-03-14T02:49:18;1.52;;;1.40;;
50851;SDS011;43953;45.508;-122.806;2023-03-14T02:49:50;2.15;;;1.65;;
50851;SDS011;43953;45.508;-122.806;2023-03-14T02:50:25;2.30;;;1.67;;
50851;SDS011;43953;45.508;-122.806;2023-03-14T02:51:00;3.70;;;2.03;;
50851;SDS011;43953;45.508;-122.806;2023-03-14T02:51:33;1.70;;;1.60;;
50851;SDS011;43953;45.508;-122.806;2023-03-14T02:52:05;2.20;;;2.00;;
50851;SDS011;43953;45.508;-122.806;2023-03-14T02:52:37;2.53;;;2.05;;
50851;SDS011;43953;45.508;-122.806;2023-03-14T02:53:09;2.08;;;1.60;;
50851;SDS011;43953;45.508;-122.806;2023-03-14T02:53:43;2.08;;;1.88;;
50851;SDS011;43953;45.508;-122.806;2023-03-14T02:54:15;2.00;;;1.80;;
50851;SDS011;43953;45.508;-122.806;2023-03-14T02:54:48;2.67;;;2.08;;
50851;SDS011;43953;45.508;-122.806;2023-03-14T02:55:21;2.10;;;1.80;;
50851;SDS011;43953;45.508;-122.806;2023-03-14T02:55:53;2.25;;;1.83;;
50851;SDS011;43953;45.508;-122.806;2023-03-14T02:56:25;2.13;;;1.80;;
50851;SDS011;43953;45.508;-122.806;2023-03-14T02:56:57;2.10;;;1.85;;
50851;SDS011;43953;45.508;-122.806;2023-03-14T02:57:29;2.42;;;1.90;;
50851;SDS011;43953;45.508;-122.806;2023-03-14T02:58:00;3.03;;;1.98;;
50851;SDS011;43953;45.508;-122.806;2023-03-14T02:58:32;1.88;;;1.52;;
50851;SDS011;43953;45.508;-122.806;2023-03-14T02:59:04;1.52;;;1.42;;
50851;SDS011;43953;45.508;-122.806;2023-03-14T02:59:36;2.35;;;1.80;;
50851;SDS011;43953;45.508;-122.806;2023-03-14T03:00:08;1.88;;;1.70;;
50851;SDS011;43953;45.508;-122.806;2023-03-14T03:00:40;1.98;;;1.50;;
50851;SDS011;43953;45.508;-122.806;2023-03-14T03:01:12;1.55;;;1.38;;
50851;SDS011;43953;45.508;-122.806;2023-03-14T03:01:44;1.85;;;1.50;;
50851;SDS011;43953;45.508;-122.806;2023-03-14T03:02:15;1.73;;;1.63;;
50851;SDS011;43953;45.508;-122.806;2023-03-14T03:02:47;1.85;;;1.65;;
50851;SDS011;43953;45.508;-122.806;2023-03-14T03:03:19;1.70;;;1.60;;
50851;SDS011;43953;45.508;-122.806;2023-03-14T03:03:51;1.88;;;1.58;;
50851;SDS011;43953;45.508;-122.806;2023-03-14T03:04:22;2.65;;;1.60;;
50851;SDS011;43953;45.508;-122.806;2023-03-14T03:04:54;1.88;;;1.67;;
50851;SDS011;43953;45.508;-122.806;2023-03-14T03:05:26;1.80;;;1.70;;
50851;SDS011;43953;45.508;-122.806;2023-03-14T03:05:57;2.03;;;1.48;;
50851;SDS011;43953;45.508;-122.806;2023-03-14T03:06:29;2.40;;;1.70;;
50851;SDS011;43953;45.508;-122.806;2023-03-14T03:07:01;1.95;;;1.75;;
50851;SDS011;43953;45.508;-122.806;2023-03-14T03:07:33;2.00;;;1.60;;
50851;SDS011;43953;45.508;-122.806;2023-03-14T03:08:04;2.88;;;1.38;;
50851;SDS011;43953;45.508;-122.806;2023-03-14T03:08:36;1.92;;;1.73;;
50851;SDS011;43953;45.508;-122.806;2023-03-14T03:09:08;2.00;;;1.80;;
50851;SDS011;43953;45.508;-122.806;2023-03-14T03:09:40;2.08;;;1.77;;
50851;SDS011;43953;45.508;-122.806;2023-03-14T03:10:11;2.00;;;1.90;;
50851;SDS011;43953;45.508;-122.806;2023-03-14T03:10:43;1.83;;;1.52;;
50851;SDS011;43953;45.508;-122.806;2023-03-14T03:11:15;1.80;;;1.70;;
50851;SDS011;43953;45.508;-122.806;2023-03-14T03:11:47;2.38;;;1.90;;
50851;SDS011;43953;45.508;-122.806;2023-03-14T03:12:18;2.38;;;1.90;;
50851;SDS011;43953;45.508;-122.806;2023-03-14T03:12:50;2.08;;;1.60;;
50851;SDS011;43953;45.508;-122.806;2023-03-14T03:13:22;2.55;;;1.80;;
50851;SDS011;43953;45.508;-122.806;2023-03-14T03:13:54;1.70;;;1.60;;
50851;SDS011;43953;45.508;-122.806;2023-03-14T03:14:25;2.10;;;1.77;;
50851;SDS011;43953;45.508;-122.806;2023-03-14T03:14:57;2.97;;;1.70;;
50851;SDS011;43953;45.508;-122.806;2023-03-14T03:15:29;1.70;;;1.60;;
50851;SDS011;43953;45.508;-122.806;2023-03-14T03:16:00;2.28;;;2.08;;
50851;SDS011;43953;45.508;-122.806;2023-03-14T03:16:32;2.00;;;1.80;;
50851;SDS011;43953;45.508;-122.806;2023-03-14T03:17:04;2.03;;;1.80;;
50851;SDS011;43953;45.508;-122.806;2023-03-14T03:17:36;2.88;;;1.83;;
50851;SDS011;43953;45.508;-122.806;2023-03-14T03:18:08;2.38;;;1.70;;
50851;SDS011;43953;45.508;-122.806;2023-03-14T03:18:40;2.38;;;1.80;;
50851;SDS011;43953;45.508;-122.806;2023-03-14T03:19:12;2.83;;;2.00;;
50851;SDS011;43953;45.508;-122.806;2023-03-14T03:19:44;2.42;;;1.80;;
50851;SDS011;43953;45.508;-122.806;2023-03-14T03:20:16;2.70;;;1.95;;
50851;SDS011;43953;45.508;-122.806;2023-03-14T03:20:48;2.63;;;1.80;;
50851;SDS011;43953;45.508;-122.806;2023-03-14T03:21:19;2.60;;;2.38;;